sensor_id;sensor_type;location;lat;lon;timestamp;pressure;altitude;pressure_sealevel;temperature;humidity
65800;BME280;52544;48.116;11.660;2023-05-23T00:01:29;95301.09;;;17.42;100.00
65800;BME280;52544;48.116;11.660;2023-05-23T00:03:56;95295.13;;;17.32;100.00
65800;BME280;52544;48.116;11.660;2023-05-23T00:06:21;95301.69;;;17.29;100.00
65800;BME280;52544;48.116;11.660;2023-05-23T00:08:47;95298.53;;;17.26;100.00
65800;BME280;52544;48.116;11.660;2023-05-23T00:11:13;95300.00;;;17.28;100.00
65800;BME280;52544;48.116;11.660;2023-05-23T00:13:40;95303.69;;;17.27;100.00
65800;BME280;52544;48.116;11.660;2023-05-23T00:16:06;95308.22;;;17.27;100.00
65800;BME280;52544;48.116;11.660;2023-05-23T00:18:35;95304.78;;;17.18;100.00
65800;BME280;52544;48.116;11.660;2023-05-23T00:21:01;95303.28;;;17.15;100.00
65800;BME280;52544;48.116;11.660;2023-05-23T00:23:28;95311.28;;;17.15;100.00
65800;BME280;52544;48.116;11.660;2023-05-23T00:25:56;95296.47;;;17.13;100.00
65800;BME280;52544;48.116;11.660;2023-05-23T00:28:22;95311.53;;;17.06;100.00
65800;BME280;52544;48.116;11.660;2023-05-23T00:30:47;95309.53;;;17.08;100.00
65800;BME280;52544;48.116;11.660;2023-05-23T00:33:15;95308.66;;;17.07;100.00
65800;BME280;52544;48.116;11.660;2023-05-23T00:35:41;95310.72;;;17.05;100.00
65800;BME280;52544;48.116;11.660;2023-05-23T00:38:06;95309.69;;;17.06;100.00
65800;BME280;52544;48.116;11.660;2023-05-23T00:40:33;95308.22;;;17.04;100.00
65800;BME280;52544;48.116;11.660;2023-05-23T00:42:59;95311.00;;;17.10;100.00
65800;BME280;52544;48.116;11.660;2023-05-23T00:45:25;95303.66;;;17.12;100.00
65800;BME280;52544;48.116;11.660;2023-05-23T00:47:51;95308.31;;;17.10;100.00
65800;BME280;52544;48.116;11.660;2023-05-23T00:50:17;95311.66;;;17.12;100.00
65800;BME280;52544;48.116;11.660;2023-05-23T00:52:44;95306.78;;;17.16;100.00
65800;BME280;52544;48.116;11.660;2023-05-23T00:55:10;95309.94;;;17.19;100.00
65800;BME280;52544;48.116;11.660;2023-05-23T00:57:37;95308.56;;;17.23;100.00
65800;BME280;52544;48.116;11.660;2023-05-23T01:00:07;95300.66;;;17.30;100.00
65800;BME280;52544;48.116;11.660;2023-05-23T01:02:36;95304.16;;;17.31;100.00
65800;BME280;52544;48.116;11.660;2023-05-23T01:05:06;95306.00;;;17.30;100.00
65800;BME280;52544;48.116;11.660;2023-05-23T01:07:31;95315.06;;;17.29;100.00
65800;BME280;52544;48.116;11.660;2023-05-23T01:09:57;95314.56;;;17.26;100.00
65800;BME280;52544;48.116;11.660;2023-05-23T01:20:29;95314.53;;;17.34;100.00
65800;BME280;52544;48.116;11.660;2023-05-23T01:23:01;95321.88;;;17.32;100.00
65800;BME280;52544;48.116;11.660;2023-05-23T01:25:50;95322.53;;;17.34;100.00
65800;BME280;52544;48.116;11.660;2023-05-23T01:28:27;95323.66;;;17.39;100.00
65800;BME280;52544;48.116;11.660;2023-05-23T01:30:56;95320.16;;;17.39;100.00
65800;BME280;52544;48.116;11.660;2023-05-23T01:33:24;95320.78;;;17.41;100.00
65800;BME280;52544;48.116;11.660;2023-05-23T01:35:50;95324.13;;;17.43;100.00
65800;BME280;52544;48.116;11.660;2023-05-23T01:38:15;95318.94;;;17.41;100.00
65800;BME280;52544;48.116;11.660;2023-05-23T01:40:41;95326.97;;;17.41;100.00
65800;BME280;52544;48.116;11.660;2023-05-23T01:43:06;95328.81;;;17.41;100.00
65800;BME280;52544;48.116;11.660;2023-05-23T01:45:32;95316.81;;;17.37;100.00
65800;BME280;52544;48.116;11.660;2023-05-23T01:47:59;95329.84;;;17.40;100.00
65800;BME280;52544;48.116;11.660;2023-05-23T01:50:26;95321.63;;;17.41;100.00
65800;BME280;52544;48.116;11.660;2023-05-23T01:52:53;95324.50;;;17.40;100.00
65800;BME280;52544;48.116;11.660;2023-05-23T01:55:20;95324.50;;;17.40;100.00
65800;BME280;52544;48.116;11.660;2023-05-23T01:57:51;95329.50;;;17.43;100.00
65800;BME280;52544;48.116;11.660;2023-05-23T02:00:18;95336.50;;;17.44;100.00
65800;BME280;52544;48.116;11.660;2023-05-23T02:02:44;95334.66;;;17.44;100.00
65800;BME280;52544;48.116;11.660;2023-05-23T02:05:10;95343.22;;;17.40;100.00
65800;BME280;52544;48.116;11.660;2023-05-23T02:07:35;95338.41;;;17.35;100.00
65800;BME280;52544;48.116;11.660;2023-05-23T02:10:02;95344.09;;;17.32;100.00
65800;BME280;52544;48.116;11.660;2023-05-23T02:12:28;95352.59;;;17.36;100.00
65800;BME280;52544;48.116;11.660;2023-05-23T02:14:53;95344.94;;;17.33;100.00
65800;BME280;52544;48.116;11.660;2023-05-23T02:17:19;95344.94;;;17.33;100.00
65800;BME280;52544;48.116;11.660;2023-05-23T02:19:46;95358.63;;;17.38;100.00
65800;BME280;52544;48.116;11.660;2023-05-23T02:22:12;95341.91;;;17.36;100.00
65800;BME280;52544;48.116;11.660;2023-05-23T02:24:37;95352.59;;;17.36;100.00
65800;BME280;52544;48.116;11.660;2023-05-23T02:27:03;95346.06;;;17.38;100.00
65800;BME280;52544;48.116;11.660;2023-05-23T02:29:28;95356.94;;;17.37;100.00
65800;BME280;52544;48.116;11.660;2023-05-23T02:31:54;95350.66;;;17.30;100.00
65800;BME280;52544;48.116;11.660;2023-05-23T02:34:19;95351.78;;;17.35;100.00
65800;BME280;52544;48.116;11.660;2023-05-23T02:36:44;95352.94;;;17.33;100.00
65800;BME280;52544;48.116;11.660;2023-05-23T02:39:10;95353.97;;;17.32;100.00
65800;BME280;52544;48.116;11.660;2023-05-23T02:41:35;95358.72;;;17.21;100.00
65800;BME280;52544;48.116;11.660;2023-05-23T02:44:01;95351.06;;;17.18;100.00
65800;BME280;52544;48.116;11.660;2023-05-23T02:46:27;95360.25;;;17.16;100.00
65800;BME280;52544;48.116;11.660;2023-05-23T02:48:52;95359.31;;;17.09;100.00
65800;BME280;52544;48.116;11.660;2023-05-23T02:51:17;95369.47;;;17.13;100.00
65800;BME280;52544;48.116;11.660;2023-05-23T02:53:43;95363.16;;;17.06;100.00
65800;BME280;52544;48.116;11.660;2023-05-23T02:56:08;95369.19;;;17.08;100.00
65800;BME280;52544;48.116;11.660;2023-05-23T02:58:34;95364.69;;;17.01;100.00
65800;BME280;52544;48.116;11.660;2023-05-23T03:01:03;95365.22;;;16.96;100.00
65800;BME280;52544;48.116;11.660;2023-05-23T03:03:28;95360.72;;;16.96;100.00
65800;BME280;52544;48.116;11.660;2023-05-23T03:05:56;95364.94;;;16.91;100.00
65800;BME280;52544;48.116;11.660;2023-05-23T03:08:22;95364.44;;;16.87;100.00
65800;BME280;52544;48.116;11.660;2023-05-23T03:10:48;95367.59;;;16.91;100.00
65800;BME280;52544;48.116;11.660;2023-05-23T03:13:13;95363.44;;;16.88;100.00
65800;BME280;52544;48.116;11.660;2023-05-23T03:15:38;95370.66;;;16.80;100.00
65800;BME280;52544;48.116;11.660;2023-05-23T03:18:04;95373.19;;;16.73;100.00
65800;BME280;52544;48.116;11.660;2023-05-23T03:20:29;95362.97;;;16.68;100.00
65800;BME280;52544;48.116;11.660;2023-05-23T03:22:54;95366.19;;;16.64;100.00
65800;BME280;52544;48.116;11.660;2023-05-23T03:25:20;95368.84;;;16.64;100.00
65800;BME280;52544;48.116;11.660;2023-05-23T03:27:45;95372.72;;;16.61;100.00
65800;BME280;52544;48.116;11.660;2023-05-23T03:30:11;95369.72;;;16.56;100.00
65800;BME280;52544;48.116;11.660;2023-05-23T03:32:37;95367.72;;;16.58;100.00
65800;BME280;52544;48.116;11.660;2023-05-23T03:35:02;95368.38;;;16.52;100.00
65800;BME280;52544;48.116;11.660;2023-05-23T03:37:27;95369.41;;;16.51;100.00
65800;BME280;52544;48.116;11.660;2023-05-23T03:39:53;95369.25;;;16.53;100.00
65800;BME280;52544;48.116;11.660;2023-05-23T03:42:18;95371.72;;;16.54;100.00
65800;BME280;52544;48.116;11.660;2023-05-23T03:44:44;95374.53;;;16.61;100.00
65800;BME280;52544;48.116;11.660;2023-05-23T03:47:09;95374.06;;;16.57;100.00
65800;BME280;52544;48.116;11.660;2023-05-23T03:49:34;95377.06;;;16.54;100.00
65800;BME280;52544;48.116;11.660;2023-05-23T03:52:00;95376.75;;;16.57;100.00
65800;BME280;52544;48.116;11.660;2023-05-23T03:54:25;95374.72;;;16.59;100.00
65800;BME280;52544;48.116;11.660;2023-05-23T03:56:50;95376.03;;;16.63;100.00
65800;BME280;52544;48.116;11.660;2023-05-23T03:59:17;95377.38;;;16.59;100.00
65800;BME280;52544;48.116;11.660;2023-05-23T04:01:42;95380.38;;;16.56;100.00
65800;BME280;52544;48.116;11.660;2023-05-23T04:04:08;95379.56;;;16.56;100.00
65800;BME280;52544;48.116;11.660;2023-05-23T04:06:33;95381.72;;;16.60;100.00
65800;BME280;52544;48.116;11.660;2023-05-23T04:08:59;95387.44;;;16.57;100.00
65800;BME280;52544;48.116;11.660;2023-05-23T04:11:25;95382.91;;;16.58;100.00
65800;BME280;52544;48.116;11.660;2023-05-23T04:13:50;95381.72;;;16.60;100.00
65800;BME280;52544;48.116;11.660;2023-05-23T04:16:16;95382.53;;;16.61;100.00
65800;BME280;52544;48.116;11.660;2023-05-23T04:18:41;95388.03;;;16.67;100.00
65800;BME280;52544;48.116;11.660;2023-05-23T04:21:07;95386.69;;;16.71;100.00
65800;BME280;52544;48.116;11.660;2023-05-23T04:23:33;95388.88;;;16.76;100.00
65800;BME280;52544;48.116;11.660;2023-05-23T04:25:58;95392.56;;;16.67;100.00
65800;BME280;52544;48.116;11.660;2023-05-23T04:28:27;95394.72;;;16.71;100.00
65800;BME280;52544;48.116;11.660;2023-05-23T04:30:52;95404.25;;;16.74;100.00
65800;BME280;52544;48.116;11.660;2023-05-23T04:33:18;95409.22;;;16.77;100.00
65800;BME280;52544;48.116;11.660;2023-05-23T04:35:44;95422.25;;;16.72;100.00
65800;BME280;52544;48.116;11.660;2023-05-23T04:38:09;95423.28;;;16.79;100.00
65800;BME280;52544;48.116;11.660;2023-05-23T04:40:35;95426.97;;;16.78;100.00
65800;BME280;52544;48.116;11.660;2023-05-23T04:43:00;95419.59;;;16.80;100.00
65800;BME280;52544;48.116;11.660;2023-05-23T04:45:25;95423.59;;;16.76;100.00
65800;BME280;52544;48.116;11.660;2023-05-23T04:47:51;95424.44;;;16.77;100.00
65800;BME280;52544;48.116;11.660;2023-05-23T04:50:19;95425.22;;;16.85;100.00
65800;BME280;52544;48.116;11.660;2023-05-23T04:52:46;95425.22;;;16.85;100.00
65800;BME280;52544;48.116;11.660;2023-05-23T04:55:11;95419.06;;;16.85;100.00
65800;BME280;52544;48.116;11.660;2023-05-23T04:57:37;95410.84;;;16.86;100.00
65800;BME280;52544;48.116;11.660;2023-05-23T05:00:03;95411.75;;;16.79;100.00
65800;BME280;52544;48.116;11.660;2023-05-23T05:02:35;95407.50;;;16.92;100.00
65800;BME280;52544;48.116;11.660;2023-05-23T05:05:01;95413.53;;;16.86;100.00
65800;BME280;52544;48.116;11.660;2023-05-23T05:07:26;95418.88;;;16.86;100.00
65800;BME280;52544;48.116;11.660;2023-05-23T05:09:53;95416.38;;;16.85;100.00
65800;BME280;52544;48.116;11.660;2023-05-23T05:12:19;95418.72;;;16.88;100.00
65800;BME280;52544;48.116;11.660;2023-05-23T05:14:44;95418.53;;;16.89;100.00
65800;BME280;52544;48.116;11.660;2023-05-23T05:17:09;95417.72;;;16.89;100.00
65800;BME280;52544;48.116;11.660;2023-05-23T05:19:35;95434.56;;;16.89;100.00
65800;BME280;52544;48.116;11.660;2023-05-23T05:22:00;95423.88;;;16.89;100.00
65800;BME280;52544;48.116;11.660;2023-05-23T05:24:26;95430.41;;;16.95;100.00
65800;BME280;52544;48.116;11.660;2023-05-23T05:26:52;95424.03;;;16.96;100.00
65800;BME280;52544;48.116;11.660;2023-05-23T05:29:18;95419.19;;;16.99;100.00
65800;BME280;52544;48.116;11.660;2023-05-23T05:31:43;95422.84;;;16.98;100.00
65800;BME280;52544;48.116;11.660;2023-05-23T05:34:10;95422.84;;;16.98;100.00
65800;BME280;52544;48.116;11.660;2023-05-23T05:36:36;95422.69;;;17.00;100.00
65800;BME280;52544;48.116;11.660;2023-05-23T05:39:02;95419.47;;;17.05;100.00
65800;BME280;52544;48.116;11.660;2023-05-23T05:41:27;95421.97;;;17.06;100.00
65800;BME280;52544;48.116;11.660;2023-05-23T05:43:53;95412.28;;;17.05;100.00
65800;BME280;52544;48.116;11.660;2023-05-23T05:46:18;95408.25;;;17.09;100.00
65800;BME280;52544;48.116;11.660;2023-05-23T05:48:45;95416.91;;;17.11;100.00
65800;BME280;52544;48.116;11.660;2023-05-23T05:51:10;95409.91;;;17.10;100.00
65800;BME280;52544;48.116;11.660;2023-05-23T05:53:36;95411.63;;;17.34;100.00
65800;BME280;52544;48.116;11.660;2023-05-23T05:56:01;95424.22;;;17.26;100.00
65800;BME280;52544;48.116;11.660;2023-05-23T05:58:27;95429.75;;;17.16;100.00
65800;BME280;52544;48.116;11.660;2023-05-23T06:00:53;95431.66;;;17.07;100.00
65800;BME280;52544;48.116;11.660;2023-05-23T06:03:19;95438.69;;;17.08;100.00
65800;BME280;52544;48.116;11.660;2023-05-23T06:05:44;95431.31;;;17.10;100.00
65800;BME280;52544;48.116;11.660;2023-05-23T06:08:09;95427.06;;;17.24;100.00
65800;BME280;52544;48.116;11.660;2023-05-23T06:10:36;95435.16;;;17.39;100.00
65800;BME280;52544;48.116;11.660;2023-05-23T06:13:02;95433.38;;;17.54;100.00
65800;BME280;52544;48.116;11.660;2023-05-23T06:15:28;95429.47;;;17.65;100.00
65800;BME280;52544;48.116;11.660;2023-05-23T06:17:53;95435.28;;;17.77;100.00
65800;BME280;52544;48.116;11.660;2023-05-23T06:20:19;95428.50;;;17.89;100.00
65800;BME280;52544;48.116;11.660;2023-05-23T06:22:44;95435.72;;;18.03;100.00
65800;BME280;52544;48.116;11.660;2023-05-23T06:25:10;95430.66;;;18.08;100.00
65800;BME280;52544;48.116;11.660;2023-05-23T06:27:36;95434.00;;;18.10;100.00
65800;BME280;52544;48.116;11.660;2023-05-23T06:30:06;95437.06;;;18.22;100.00
65800;BME280;52544;48.116;11.660;2023-05-23T06:32:31;95438.00;;;18.29;100.00
65800;BME280;52544;48.116;11.660;2023-05-23T06:34:57;95443.41;;;18.59;100.00
65800;BME280;52544;48.116;11.660;2023-05-23T06:37:23;95439.69;;;18.60;100.00
65800;BME280;52544;48.116;11.660;2023-05-23T06:39:49;95435.91;;;18.69;100.00
65800;BME280;52544;48.116;11.660;2023-05-23T06:42:14;95443.06;;;18.77;100.00
65800;BME280;52544;48.116;11.660;2023-05-23T06:44:40;95439.25;;;18.86;100.00
65800;BME280;52544;48.116;11.660;2023-05-23T06:47:06;95440.28;;;18.85;100.00
65800;BME280;52544;48.116;11.660;2023-05-23T06:49:31;95446.31;;;18.87;100.00
65800;BME280;52544;48.116;11.660;2023-05-23T06:51:56;95434.09;;;18.84;100.00
65800;BME280;52544;48.116;11.660;2023-05-23T06:54:22;95439.38;;;18.92;100.00
65800;BME280;52544;48.116;11.660;2023-05-23T06:56:47;95449.44;;;19.05;100.00
65800;BME280;52544;48.116;11.660;2023-05-23T06:59:12;95452.69;;;19.01;100.00
65800;BME280;52544;48.116;11.660;2023-05-23T07:01:38;95447.88;;;18.96;100.00
65800;BME280;52544;48.116;11.660;2023-05-23T07:04:03;95449.91;;;19.09;100.00
65800;BME280;52544;48.116;11.660;2023-05-23T07:06:29;95454.59;;;19.21;100.00
65800;BME280;52544;48.116;11.660;2023-05-23T07:08:55;95450.88;;;19.22;100.00
65800;BME280;52544;48.116;11.660;2023-05-23T07:11:21;95460.78;;;19.22;100.00
65800;BME280;52544;48.116;11.660;2023-05-23T07:13:46;95454.03;;;19.11;100.00
65800;BME280;52544;48.116;11.660;2023-05-23T07:16:12;95451.34;;;19.11;100.00
65800;BME280;52544;48.116;11.660;2023-05-23T07:18:37;95448.13;;;19.16;100.00
65800;BME280;52544;48.116;11.660;2023-05-23T07:21:03;95449.59;;;19.18;100.00
65800;BME280;52544;48.116;11.660;2023-05-23T07:23:31;95450.25;;;19.20;100.00
65800;BME280;52544;48.116;11.660;2023-05-23T07:25:58;95464.66;;;19.19;100.00
65800;BME280;52544;48.116;11.660;2023-05-23T07:28:23;95461.78;;;19.36;100.00
65800;BME280;52544;48.116;11.660;2023-05-23T07:30:49;95458.63;;;19.32;100.00
65800;BME280;52544;48.116;11.660;2023-05-23T07:33:15;95462.03;;;19.41;100.00
65800;BME280;52544;48.116;11.660;2023-05-23T07:35:40;95464.91;;;19.39;100.00
65800;BME280;52544;48.116;11.660;2023-05-23T07:38:06;95466.19;;;19.43;100.00
65800;BME280;52544;48.116;11.660;2023-05-23T07:40:31;95470.03;;;19.34;100.00
65800;BME280;52544;48.116;11.660;2023-05-23T07:42:57;95466.63;;;19.26;100.00
65800;BME280;52544;48.116;11.660;2023-05-23T07:45:24;95474.56;;;19.34;100.00
65800;BME280;52544;48.116;11.660;2023-05-23T07:47:49;95466.88;;;19.45;100.00
65800;BME280;52544;48.116;11.660;2023-05-23T07:50:15;95472.50;;;19.36;100.00
65800;BME280;52544;48.116;11.660;2023-05-23T07:52:40;95467.53;;;19.33;100.00
65800;BME280;52544;48.116;11.660;2023-05-23T07:55:07;95465.03;;;19.31;100.00
65800;BME280;52544;48.116;11.660;2023-05-23T07:57:32;95470.47;;;19.38;100.00
65800;BME280;52544;48.116;11.660;2023-05-23T07:59:57;95471.38;;;19.45;100.00
65800;BME280;52544;48.116;11.660;2023-05-23T08:02:23;95471.38;;;19.45;100.00
65800;BME280;52544;48.116;11.660;2023-05-23T08:04:48;95477.88;;;19.36;100.00
65800;BME280;52544;48.116;11.660;2023-05-23T08:07:14;95482.22;;;19.37;100.00
65800;BME280;52544;48.116;11.660;2023-05-23T08:09:39;95477.81;;;19.29;100.00
65800;BME280;52544;48.116;11.660;2023-05-23T08:12:06;95478.75;;;19.21;100.00
65800;BME280;52544;48.116;11.660;2023-05-23T08:14:31;95475.38;;;19.19;100.00
65800;BME280;52544;48.116;11.660;2023-05-23T08:16:57;95486.31;;;19.18;100.00
65800;BME280;52544;48.116;11.660;2023-05-23T08:19:22;95470.69;;;19.21;100.00
65800;BME280;52544;48.116;11.660;2023-05-23T08:21:47;95482.72;;;19.26;100.00
65800;BME280;52544;48.116;11.660;2023-05-23T08:24:13;95481.50;;;19.28;100.00
65800;BME280;52544;48.116;11.660;2023-05-23T08:26:39;95487.31;;;19.32;100.00
65800;BME280;52544;48.116;11.660;2023-05-23T08:29:04;95482.03;;;19.38;100.00
65800;BME280;52544;48.116;11.660;2023-05-23T08:31:30;95482.78;;;19.32;100.00
65800;BME280;52544;48.116;11.660;2023-05-23T08:33:56;95485.47;;;19.32;100.00
65800;BME280;52544;48.116;11.660;2023-05-23T08:36:21;95495.09;;;19.27;100.00
65800;BME280;52544;48.116;11.660;2023-05-23T08:38:48;95493.28;;;19.12;100.00
65800;BME280;52544;48.116;11.660;2023-05-23T08:41:19;95490.59;;;19.12;100.00
65800;BME280;52544;48.116;11.660;2023-05-23T08:43:45;95488.47;;;19.08;100.00
65800;BME280;52544;48.116;11.660;2023-05-23T08:46:11;95501.41;;;19.04;100.00
65800;BME280;52544;48.116;11.660;2023-05-23T08:48:37;95501.97;;;19.00;100.00
65800;BME280;52544;48.116;11.660;2023-05-23T08:51:03;95507.34;;;19.00;100.00
65800;BME280;52544;48.116;11.660;2023-05-23T08:53:30;95509.06;;;19.07;100.00
65800;BME280;52544;48.116;11.660;2023-05-23T08:55:58;95510.75;;;19.08;100.00
65800;BME280;52544;48.116;11.660;2023-05-23T08:58:29;95514.16;;;19.17;100.00
65800;BME280;52544;48.116;11.660;2023-05-23T09:00:57;95507.41;;;19.21;100.00
65800;BME280;52544;48.116;11.660;2023-05-23T09:03:25;95505.38;;;19.08;100.00
65800;BME280;52544;48.116;11.660;2023-05-23T09:05:54;95502.25;;;19.05;100.00
65800;BME280;52544;48.116;11.660;2023-05-23T09:08:20;95504.19;;;18.96;100.00
65800;BME280;52544;48.116;11.660;2023-05-23T09:10:49;95505.94;;;18.89;100.00
65800;BME280;52544;48.116;11.660;2023-05-23T09:13:16;95510.00;;;19.00;100.00
65800;BME280;52544;48.116;11.660;2023-05-23T09:18:25;95508.59;;;19.18;100.00
65800;BME280;52544;48.116;11.660;2023-05-23T09:20:51;95509.16;;;19.29;100.00
65800;BME280;52544;48.116;11.660;2023-05-23T09:23:17;95518.88;;;19.30;100.00
65800;BME280;52544;48.116;11.660;2023-05-23T09:25:46;95516.19;;;19.30;100.00
65800;BME280;52544;48.116;11.660;2023-05-23T09:28:12;95510.16;;;19.28;100.00
65800;BME280;52544;48.116;11.660;2023-05-23T09:30:38;95519.34;;;19.18;100.00
65800;BME280;52544;48.116;11.660;2023-05-23T09:33:03;95520.28;;;19.26;100.00
65800;BME280;52544;48.116;11.660;2023-05-23T09:35:29;95510.16;;;19.28;100.00
65800;BME280;52544;48.116;11.660;2023-05-23T09:37:56;95513.41;;;19.38;100.00
65800;BME280;52544;48.116;11.660;2023-05-23T09:40:30;95511.38;;;19.40;100.00
65800;BME280;52544;48.116;11.660;2023-05-23T09:43:01;95517.28;;;19.50;100.00
65800;BME280;52544;48.116;11.660;2023-05-23T09:45:31;95510.69;;;19.53;100.00
65800;BME280;52544;48.116;11.660;2023-05-23T09:47:56;95520.50;;;19.60;100.00
65800;BME280;52544;48.116;11.660;2023-05-23T09:50:23;95512.63;;;19.59;100.00
65800;BME280;52544;48.116;11.660;2023-05-23T09:52:48;95518.19;;;19.57;100.00
65800;BME280;52544;48.116;11.660;2023-05-23T09:55:15;95514.03;;;19.55;100.00
65800;BME280;52544;48.116;11.660;2023-05-23T09:57:42;95518.47;;;19.47;100.00
65800;BME280;52544;48.116;11.660;2023-05-23T10:00:09;95517.44;;;19.48;100.00
65800;BME280;52544;48.116;11.660;2023-05-23T10:03:03;95514.97;;;19.47;100.00
65800;BME280;52544;48.116;11.660;2023-05-23T10:05:37;95524.69;;;19.63;100.00
65800;BME280;52544;48.116;11.660;2023-05-23T10:08:09;95519.31;;;19.63;100.00
65800;BME280;52544;48.116;11.660;2023-05-23T10:13:19;95506.63;;;19.57;100.00
65800;BME280;52544;48.116;11.660;2023-05-23T10:15:47;95505.78;;;19.56;100.00
65800;BME280;52544;48.116;11.660;2023-05-23T10:18:25;95508.56;;;19.48;100.00
65800;BME280;52544;48.116;11.660;2023-05-23T10:20:56;95494.69;;;19.59;100.00
65800;BME280;52544;48.116;11.660;2023-05-23T10:23:27;95503.84;;;19.65;100.00
65800;BME280;52544;48.116;11.660;2023-05-23T10:25:54;95501.81;;;19.67;100.00
65800;BME280;52544;48.116;11.660;2023-05-23T10:28:19;95504.78;;;19.72;100.00
65800;BME280;52544;48.116;11.660;2023-05-23T10:30:45;95502.66;;;19.67;100.00
65800;BME280;52544;48.116;11.660;2023-05-23T10:33:13;95504.94;;;19.70;100.00
65800;BME280;52544;48.116;11.660;2023-05-23T10:46:54;95501.53;;;19.98;100.00
65800;BME280;52544;48.116;11.660;2023-05-23T10:52:01;95502.97;;;20.01;100.00
65800;BME280;52544;48.116;11.660;2023-05-23T10:54:33;95504.47;;;20.03;100.00
65800;BME280;52544;48.116;11.660;2023-05-23T10:57:03;95502.72;;;19.95;100.00
65800;BME280;52544;48.116;11.660;2023-05-23T10:59:29;95505.38;;;19.89;100.00
65800;BME280;52544;48.116;11.660;2023-05-23T11:01:54;95504.09;;;19.85;100.00
65800;BME280;52544;48.116;11.660;2023-05-23T11:04:27;95502.44;;;19.84;100.00
65800;BME280;52544;48.116;11.660;2023-05-23T11:06:55;95505.16;;;19.90;100.00
65800;BME280;52544;48.116;11.660;2023-05-23T11:09:21;95503.84;;;20.01;100.00
65800;BME280;52544;48.116;11.660;2023-05-23T11:17:00;95489.63;;;20.78;100.00
65800;BME280;52544;48.116;11.660;2023-05-23T11:19:39;95482.28;;;21.28;100.00
65800;BME280;52544;48.116;11.660;2023-05-23T11:22:07;95484.28;;;21.61;100.00
65800;BME280;52544;48.116;11.660;2023-05-23T11:24:50;95480.66;;;21.95;100.00
65800;BME280;52544;48.116;11.660;2023-05-23T11:27:26;95478.25;;;22.13;100.00
65800;BME280;52544;48.116;11.660;2023-05-23T11:30:01;95469.13;;;22.28;100.00
65800;BME280;52544;48.116;11.660;2023-05-23T11:32:29;95467.25;;;22.41;95.28
65800;BME280;52544;48.116;11.660;2023-05-23T11:35:01;95460.63;;;22.57;97.76
65800;BME280;52544;48.116;11.660;2023-05-23T11:37:27;95454.59;;;22.82;98.66
65800;BME280;52544;48.116;11.660;2023-05-23T11:39:53;95454.78;;;22.93;99.03
65800;BME280;52544;48.116;11.660;2023-05-23T11:42:19;95455.38;;;23.15;97.75
65800;BME280;52544;48.116;11.660;2023-05-23T11:44:48;95458.16;;;23.40;91.20
65800;BME280;52544;48.116;11.660;2023-05-23T11:47:13;95453.75;;;23.53;91.57
65800;BME280;52544;48.116;11.660;2023-05-23T11:49:39;95448.81;;;23.43;91.20
65800;BME280;52544;48.116;11.660;2023-05-23T11:52:05;95457.50;;;23.52;89.80
65800;BME280;52544;48.116;11.660;2023-05-23T11:54:31;95457.47;;;23.65;91.16
65800;BME280;52544;48.116;11.660;2023-05-23T11:56:57;95456.03;;;23.56;85.64
65800;BME280;52544;48.116;11.660;2023-05-23T11:59:25;95453.91;;;23.19;91.42
65800;BME280;52544;48.116;11.660;2023-05-23T12:01:52;95463.66;;;23.14;92.92
65800;BME280;52544;48.116;11.660;2023-05-23T12:04:17;95458.16;;;23.40;94.32
65800;BME280;52544;48.116;11.660;2023-05-23T12:06:47;95460.19;;;23.58;91.61
65800;BME280;52544;48.116;11.660;2023-05-23T12:09:14;95465.16;;;23.68;88.53
65800;BME280;52544;48.116;11.660;2023-05-23T12:11:40;95463.09;;;23.57;85.20
65800;BME280;52544;48.116;11.660;2023-05-23T12:14:06;95468.44;;;23.18;90.26
65800;BME280;52544;48.116;11.660;2023-05-23T12:16:33;95462.69;;;22.95;95.87
65800;BME280;52544;48.116;11.660;2023-05-23T12:19:03;95456.28;;;22.56;99.90
65800;BME280;52544;48.116;11.660;2023-05-23T12:24:19;95463.47;;;22.89;98.62
65800;BME280;52544;48.116;11.660;2023-05-23T12:29:13;95454.56;;;23.08;92.76
65800;BME280;52544;48.116;11.660;2023-05-23T12:31:38;95456.50;;;23.46;90.46
65800;BME280;52544;48.116;11.660;2023-05-23T12:34:04;95463.63;;;23.34;86.89
65800;BME280;52544;48.116;11.660;2023-05-23T12:36:29;95463.25;;;23.17;89.84
65800;BME280;52544;48.116;11.660;2023-05-23T12:39:03;95476.16;;;22.88;88.53
65800;BME280;52544;48.116;11.660;2023-05-23T12:41:31;95460.19;;;22.93;88.67
65800;BME280;52544;48.116;11.660;2023-05-23T12:43:57;95450.53;;;23.31;88.25
65800;BME280;52544;48.116;11.660;2023-05-23T12:46:24;95456.75;;;23.31;82.81
65800;BME280;52544;48.116;11.660;2023-05-23T12:48:50;95461.91;;;23.46;86.18
65800;BME280;52544;48.116;11.660;2023-05-23T12:51:15;95464.03;;;23.31;90.41
65800;BME280;52544;48.116;11.660;2023-05-23T12:53:41;95469.31;;;22.99;93.74
65800;BME280;52544;48.116;11.660;2023-05-23T12:56:06;95471.00;;;22.74;96.70
65800;BME280;52544;48.116;11.660;2023-05-23T12:58:32;95462.91;;;22.60;99.36
65800;BME280;52544;48.116;11.660;2023-05-23T13:00:58;95465.63;;;22.40;99.05
65800;BME280;52544;48.116;11.660;2023-05-23T13:03:24;95469.75;;;22.30;97.35
65800;BME280;52544;48.116;11.660;2023-05-23T13:05:49;95471.00;;;22.27;98.17
65800;BME280;52544;48.116;11.660;2023-05-23T13:08:15;95463.75;;;22.54;91.32
65800;BME280;52544;48.116;11.660;2023-05-23T13:10:41;95463.28;;;22.84;85.84
65800;BME280;52544;48.116;11.660;2023-05-23T13:13:07;95461.66;;;22.96;90.23
65800;BME280;52544;48.116;11.660;2023-05-23T13:15:32;95461.38;;;23.17;88.32